createdAt,value
2018-02-27T00:00:33.356Z,88.10
2018-02-27T00:03:01.719Z,88.40
2018-02-27T00:05:29.363Z,88.40
2018-02-27T00:07:56.963Z,88.70
2018-02-27T00:10:25.319Z,88.80
2018-02-27T00:12:52.911Z,88.70
2018-02-27T00:15:21.267Z,89.00
2018-02-27T00:17:48.863Z,89.00
2018-02-27T00:20:17.231Z,89.30
2018-02-27T00:22:44.830Z,89.20
2018-02-27T00:25:12.425Z,90.30
2018-02-27T00:27:40.011Z,89.70
2018-02-27T00:30:07.606Z,89.80
2018-02-27T00:32:35.959Z,90.10
2018-02-27T00:35:03.623Z,90.10
2018-02-27T00:37:31.222Z,90.20
2018-02-27T00:39:59.627Z,90.50
2018-02-27T00:42:27.214Z,90.40
2018-02-27T00:44:55.578Z,90.60
2018-02-27T00:47:23.171Z,90.60
2018-02-27T00:49:50.759Z,90.50
2018-02-27T00:52:18.358Z,90.50
2018-02-27T00:54:45.995Z,90.50
2018-02-27T00:57:13.591Z,90.60
2018-02-27T00:59:41.183Z,90.90
2018-02-27T01:02:08.770Z,90.80
2018-02-27T01:04:36.358Z,90.80
2018-02-27T01:07:04.710Z,90.70
2018-02-27T01:09:32.303Z,90.60
2018-02-27T01:11:59.894Z,90.70
2018-02-27T01:14:27.482Z,90.80
2018-02-27T01:16:55.076Z,90.80
2018-02-27T01:19:22.675Z,90.90
2018-02-27T01:21:51.027Z,90.90
2018-02-27T01:24:18.614Z,90.90
2018-02-27T01:26:46.202Z,90.90
2018-02-27T01:29:13.825Z,91.00
2018-02-27T01:31:41.740Z,91.00
2018-02-27T01:34:09.331Z,91.20
2018-02-27T01:36:36.928Z,91.10
2018-02-27T01:39:04.551Z,91.20
2018-02-27T01:41:32.144Z,91.30
2018-02-27T01:44:00.534Z,91.10
2018-02-27T01:46:28.130Z,91.10
2018-02-27T01:48:56.486Z,91.50
2018-02-27T01:51:24.139Z,91.50
2018-02-27T01:53:51.732Z,91.50
2018-02-27T01:56:20.095Z,91.70
2018-02-27T01:58:47.686Z,91.60
2018-02-27T02:01:16.035Z,91.70
2018-02-27T02:03:43.631Z,91.70
2018-02-27T02:06:11.275Z,91.80
2018-02-27T02:08:38.874Z,91.90
2018-02-27T02:11:08.118Z,91.80
2018-02-27T02:13:35.707Z,91.70
2018-02-27T02:16:03.302Z,91.90
2018-02-27T02:18:30.890Z,92.00
2018-02-27T02:20:58.492Z,91.90
2018-02-27T02:23:26.083Z,92.00
2018-02-27T02:25:53.674Z,91.90
2018-02-27T02:28:21.262Z,91.90
2018-02-27T02:30:48.865Z,92.00
2018-02-27T02:33:16.458Z,92.00
2018-02-27T02:35:44.855Z,92.00
2018-02-27T02:38:12.576Z,91.90
2018-02-27T02:40:40.171Z,92.10
2018-02-27T02:43:08.547Z,92.10
2018-02-27T02:45:36.902Z,92.10
2018-02-27T02:48:04.490Z,92.10
2018-02-27T02:50:32.088Z,92.10
2018-02-27T02:52:59.679Z,92.10
2018-02-27T02:55:27.274Z,92.10
2018-02-27T02:57:54.867Z,92.20
2018-02-27T03:00:23.267Z,92.50
2018-02-27T03:02:50.861Z,92.50
2018-02-27T03:05:18.450Z,92.20
2018-02-27T03:07:46.046Z,92.30
2018-02-27T03:10:13.642Z,92.50
2018-02-27T03:12:41.274Z,92.40
2018-02-27T03:15:09.631Z,92.60
2018-02-27T03:17:37.226Z,92.60
2018-02-27T03:20:04.820Z,92.60
2018-02-27T03:22:32.411Z,92.60
2018-02-27T03:25:00.006Z,92.50
2018-02-27T03:27:28.368Z,92.60
2018-02-27T03:29:55.960Z,92.50
2018-02-27T03:32:24.375Z,92.70
2018-02-27T03:34:51.971Z,92.70
2018-02-27T03:37:19.562Z,92.60
2018-02-27T03:39:47.151Z,92.70
2018-02-27T03:42:14.770Z,92.70
2018-02-27T03:44:42.402Z,92.70
2018-02-27T03:47:09.992Z,93.00
2018-02-27T03:49:37.574Z,92.60
2018-02-27T03:52:05.169Z,92.60
2018-02-27T03:54:33.526Z,92.60
2018-02-27T03:57:01.122Z,92.60
2018-02-27T03:59:28.711Z,92.80
2018-02-27T04:01:56.325Z,92.70
2018-02-27T04:04:24.694Z,92.60
2018-02-27T04:06:52.292Z,92.60
2018-02-27T04:09:19.890Z,92.70
2018-02-27T04:11:47.485Z,92.50
2018-02-27T04:14:15.074Z,92.60
2018-02-27T04:16:43.466Z,92.60
2018-02-27T04:19:11.819Z,92.90
2018-02-27T04:21:39.411Z,92.90
2018-02-27T04:24:07.770Z,92.90
2018-02-27T04:26:35.362Z,92.90
2018-02-27T04:29:03.722Z,92.90
2018-02-27T04:31:31.313Z,92.90
2018-02-27T04:33:59.667Z,93.00
2018-02-27T04:36:27.257Z,92.90
2018-02-27T04:38:54.847Z,93.20
2018-02-27T04:41:22.438Z,93.00
2018-02-27T04:43:50.031Z,93.10
2018-02-27T04:46:17.635Z,93.00
2018-02-27T04:48:45.228Z,93.00
2018-02-27T04:51:12.819Z,93.10
2018-02-27T04:53:40.419Z,93.00
2018-02-27T04:56:08.010Z,93.40
2018-02-27T04:58:35.600Z,93.20
2018-02-27T05:01:03.247Z,93.00
2018-02-27T05:03:30.846Z,93.10
2018-02-27T05:05:58.430Z,93.00
2018-02-27T05:08:26.790Z,93.00
2018-02-27T05:10:54.383Z,92.90
2018-02-27T05:13:22.737Z,93.20
2018-02-27T05:15:50.330Z,93.20
2018-02-27T05:18:18.694Z,93.10
2018-02-27T05:20:47.150Z,93.00
2018-02-27T05:23:14.742Z,93.00
2018-02-27T05:25:42.336Z,93.10
2018-02-27T05:28:09.928Z,93.30
2018-02-27T05:30:37.564Z,93.00
2018-02-27T05:33:05.902Z,92.80
2018-02-27T05:35:33.495Z,92.80
2018-02-27T05:38:01.861Z,93.00
2018-02-27T05:40:29.450Z,92.90
2018-02-27T05:42:57.812Z,92.90
2018-02-27T05:45:25.407Z,92.90
2018-02-27T05:47:53.007Z,93.20
2018-02-27T05:50:20.598Z,92.80
2018-02-27T05:52:48.194Z,92.90
2018-02-27T05:55:15.783Z,92.90
2018-02-27T05:57:43.375Z,93.00
2018-02-27T06:00:10.970Z,93.20
2018-02-27T06:02:39.339Z,92.70
2018-02-27T06:05:06.931Z,93.00
2018-02-27T06:07:35.294Z,93.20
2018-02-27T06:10:02.920Z,93.10
2018-02-27T06:12:30.510Z,93.20
2018-02-27T06:14:58.119Z,93.10
2018-02-27T06:17:25.711Z,93.10
2018-02-27T06:19:53.300Z,93.20
2018-02-27T06:22:20.894Z,93.20
2018-02-27T06:24:49.259Z,93.10
2018-02-27T06:27:16.866Z,93.00
2018-02-27T06:29:44.510Z,93.30
2018-02-27T06:32:12.867Z,93.40
2018-02-27T06:34:41.226Z,93.30
2018-02-27T06:37:08.822Z,93.30
2018-02-27T06:39:36.411Z,93.30
2018-02-27T06:42:04.774Z,93.20
2018-02-27T06:44:32.399Z,93.20
2018-02-27T06:46:59.990Z,93.30
2018-02-27T06:49:28.471Z,93.10
2018-02-27T06:51:56.057Z,93.10
2018-02-27T06:54:24.463Z,93.30
2018-02-27T06:56:52.834Z,93.40
2018-02-27T06:59:21.191Z,93.20
2018-02-27T07:01:48.786Z,93.20
2018-02-27T07:04:16.374Z,93.10
2018-02-27T07:06:43.966Z,93.00
2018-02-27T07:09:11.560Z,93.00
2018-02-27T07:11:39.154Z,93.00
2018-02-27T07:14:06.746Z,92.60
2018-02-27T07:16:34.339Z,92.70
2018-02-27T07:19:01.934Z,92.60
2018-02-27T07:21:30.290Z,92.50
2018-02-27T07:23:58.650Z,92.30
2018-02-27T07:26:26.251Z,92.30
2018-02-27T07:28:53.846Z,92.00
2018-02-27T07:31:21.434Z,91.80
2018-02-27T07:33:49.027Z,91.20
2018-02-27T07:36:16.650Z,90.80
2018-02-27T07:38:44.242Z,90.80
2018-02-27T07:41:11.831Z,90.70
2018-02-27T07:43:39.428Z,90.40
2018-02-27T07:46:07.058Z,90.40
2018-02-27T07:48:34.655Z,89.80
2018-02-27T07:51:03.012Z,89.10
2018-02-27T07:53:30.609Z,89.00
2018-02-27T07:55:58.206Z,89.40
2018-02-27T07:58:25.800Z,89.40
2018-02-27T08:00:53.395Z,89.40
2018-02-27T08:03:21.750Z,88.20
2018-02-27T08:05:49.346Z,88.10
2018-02-27T08:08:17.699Z,88.30
2018-02-27T08:10:45.298Z,88.10
2018-02-27T08:13:12.921Z,87.20
2018-02-27T08:15:40.507Z,88.00
2018-02-27T08:18:08.867Z,88.10
2018-02-27T08:20:36.462Z,87.30
2018-02-27T08:23:04.819Z,88.10
2018-02-27T08:25:32.427Z,88.10
2018-02-27T08:28:00.023Z,87.10
2018-02-27T08:30:27.615Z,87.50
2018-02-27T08:32:55.210Z,86.40
2018-02-27T08:35:23.574Z,85.70
2018-02-27T08:37:51.166Z,85.60
2018-02-27T08:40:18.758Z,83.10
2018-02-27T08:42:46.346Z,82.40
2018-02-27T08:45:13.991Z,80.90
2018-02-27T08:47:41.584Z,80.70
2018-02-27T08:50:09.178Z,81.20
2018-02-27T08:52:37.534Z,80.00
2018-02-27T08:55:05.132Z,79.90
2018-02-27T08:57:33.490Z,79.00
2018-02-27T09:00:01.115Z,79.00
2018-02-27T09:02:28.715Z,80.20
2018-02-27T09:04:56.307Z,79.50
2018-02-27T09:07:24.676Z,78.90
2018-02-27T09:09:52.279Z,78.90
2018-02-27T09:12:19.870Z,76.50
2018-02-27T09:14:47.514Z,76.50
2018-02-27T09:17:15.099Z,76.80
2018-02-27T09:19:42.751Z,77.40
2018-02-27T09:22:10.341Z,76.20
2018-02-27T09:24:37.977Z,75.70
2018-02-27T09:27:05.623Z,74.10
2018-02-27T09:29:33.216Z,74.00
2018-02-27T09:32:00.807Z,72.30
2018-02-27T09:34:28.407Z,72.50
2018-02-27T09:36:56.757Z,72.60
2018-02-27T09:39:24.347Z,72.50
2018-02-27T09:41:52.703Z,72.10
2018-02-27T09:44:20.338Z,72.00
2018-02-27T09:46:47.931Z,70.90
2018-02-27T09:49:15.520Z,70.30
2018-02-27T09:51:43.118Z,71.20
2018-02-27T09:54:10.716Z,73.10
2018-02-27T09:56:38.312Z,74.20
2018-02-27T09:59:05.940Z,74.10
2018-02-27T10:01:33.526Z,73.50
2018-02-27T10:04:01.115Z,73.90
2018-02-27T10:06:29.467Z,71.00
2018-02-27T10:08:57.058Z,71.00
2018-02-27T10:11:24.662Z,71.90
2018-02-27T10:13:52.242Z,72.50
2018-02-27T10:16:19.822Z,72.00
2018-02-27T10:18:47.411Z,71.00
2018-02-27T10:21:15.002Z,70.20
2018-02-27T10:23:42.732Z,71.50
2018-02-27T10:26:10.322Z,69.80
2018-02-27T10:28:38.683Z,68.60
2018-02-27T10:31:06.275Z,68.50
2018-02-27T10:33:34.634Z,67.10
2018-02-27T10:36:02.260Z,67.10
2018-02-27T10:38:29.843Z,67.30
2018-02-27T10:40:57.426Z,68.30
2018-02-27T10:43:25.016Z,66.80
2018-02-27T10:45:53.367Z,66.80
2018-02-27T10:48:20.953Z,66.60
2018-02-27T10:50:49.298Z,65.90
2018-02-27T10:53:16.887Z,65.80
2018-02-27T10:55:44.475Z,67.10
2018-02-27T10:58:13.212Z,65.90
2018-02-27T11:00:46.571Z,65.80
2018-02-27T11:03:14.150Z,66.10
2018-02-27T11:05:41.778Z,66.70
2018-02-27T11:08:09.358Z,65.90
2018-02-27T11:10:36.946Z,63.40
2018-02-27T11:13:04.538Z,63.80
2018-02-27T11:15:32.122Z,62.40
2018-02-27T11:17:59.702Z,61.50
2018-02-27T11:20:28.067Z,59.00
2018-02-27T11:22:55.677Z,59.50
2018-02-27T11:25:23.262Z,57.80
2018-02-27T11:27:50.842Z,57.40
2018-02-27T11:30:18.457Z,56.90
2018-02-27T11:32:46.869Z,58.80
2018-02-27T11:35:14.581Z,58.80
2018-02-27T11:37:42.170Z,57.30
2018-02-27T11:40:10.523Z,54.60
2018-02-27T11:42:38.167Z,54.50
2018-02-27T11:45:05.754Z,54.40
2018-02-27T11:47:33.334Z,53.60
2018-02-27T11:50:00.928Z,52.60
2018-02-27T11:52:28.515Z,52.10
2018-02-27T11:54:56.094Z,51.90
2018-02-27T11:57:23.678Z,51.50
2018-02-27T11:59:51.303Z,51.70
2018-02-27T12:02:18.918Z,51.00
2018-02-27T12:04:47.315Z,51.60
2018-02-27T12:07:15.666Z,50.10
2018-02-27T12:09:43.265Z,50.10
2018-02-27T12:12:11.614Z,50.10
2018-02-27T12:14:39.206Z,50.00
2018-02-27T12:17:07.556Z,49.90
2018-02-27T12:19:35.148Z,49.80
2018-02-27T12:22:02.756Z,50.40
2018-02-27T12:24:30.372Z,50.00
2018-02-27T12:26:57.955Z,50.60
2018-02-27T12:29:26.314Z,50.20
2018-02-27T12:31:53.935Z,50.20
2018-02-27T12:34:21.514Z,49.80
2018-02-27T12:36:49.095Z,49.70
2018-02-27T12:39:16.684Z,49.80
2018-02-27T12:41:44.267Z,49.70
2018-02-27T12:44:12.640Z,49.40
2018-02-27T12:46:40.988Z,49.50
2018-02-27T12:49:09.378Z,48.90
2018-02-27T12:51:36.962Z,49.00
2018-02-27T12:54:04.555Z,49.20
2018-02-27T12:56:32.142Z,49.30
2018-02-27T12:58:59.727Z,49.90
2018-02-27T13:01:27.315Z,48.90
2018-02-27T13:03:54.905Z,49.20
2018-02-27T13:06:23.255Z,48.70
2018-02-27T13:08:50.844Z,48.70
2018-02-27T13:11:19.230Z,48.70
2018-02-27T13:13:46.813Z,48.70
2018-02-27T13:16:14.399Z,48.80
2018-02-27T13:18:41.982Z,49.00
2018-02-27T13:21:09.567Z,49.40
2018-02-27T13:23:37.154Z,49.40
2018-02-27T13:26:05.507Z,49.10
2018-02-27T13:28:33.095Z,49.10
2018-02-27T13:31:00.692Z,49.00
2018-02-27T13:33:28.286Z,48.80
2018-02-27T13:35:55.866Z,48.70
2018-02-27T13:38:23.451Z,49.00
2018-02-27T13:40:51.807Z,49.20
2018-02-27T13:43:19.396Z,49.20
2018-02-27T13:45:46.982Z,48.60
2018-02-27T13:48:14.562Z,48.40
2018-02-27T13:50:42.146Z,49.20
2018-02-27T13:53:09.727Z,49.00
2018-02-27T13:55:37.353Z,48.20
2018-02-27T13:58:04.931Z,48.20
2018-02-27T14:00:32.518Z,48.10
2018-02-27T14:03:00.103Z,48.30
2018-02-27T14:05:27.685Z,48.80
2018-02-27T14:07:56.030Z,49.60
2018-02-27T14:10:23.610Z,49.50
2018-02-27T14:12:51.191Z,48.60
2018-02-27T14:15:19.538Z,49.60
2018-02-27T14:17:47.118Z,49.60
2018-02-27T14:20:14.702Z,49.50
2018-02-27T14:22:43.055Z,49.90
2018-02-27T14:25:10.643Z,49.20
2018-02-27T14:27:38.267Z,49.30
2018-02-27T14:30:05.858Z,49.60
2018-02-27T14:32:33.453Z,49.40
2018-02-27T14:35:01.040Z,49.80
2018-02-27T14:37:28.625Z,49.80
2018-02-27T14:39:56.215Z,50.00
2018-02-27T14:42:23.849Z,50.30
2018-02-27T14:44:51.480Z,50.80
2018-02-27T14:47:19.839Z,50.80
2018-02-27T14:49:47.434Z,50.80
2018-02-27T14:52:15.020Z,50.80
2018-02-27T14:54:42.614Z,50.60
2018-02-27T14:57:10.198Z,49.70
2018-02-27T14:59:37.787Z,49.40
2018-02-27T15:02:06.143Z,50.50
2018-02-27T15:04:33.735Z,50.40
2018-02-27T15:07:01.319Z,50.70
2018-02-27T15:09:28.979Z,50.80
2018-02-27T15:11:56.519Z,51.10
2018-02-27T15:14:24.880Z,51.40
2018-02-27T15:16:52.468Z,51.40
2018-02-27T15:19:20.821Z,52.10
2018-02-27T15:21:48.419Z,52.00
2018-02-27T15:24:16.788Z,52.30
2018-02-27T15:26:44.373Z,52.20
2018-02-27T15:29:11.964Z,52.40
2018-02-27T15:31:39.556Z,52.70
2018-02-27T15:34:07.198Z,52.90
2018-02-27T15:36:34.786Z,53.00
2018-02-27T15:39:02.432Z,53.10
2018-02-27T15:41:30.026Z,53.10
2018-02-27T15:43:57.631Z,53.10
2018-02-27T15:46:25.982Z,53.30
2018-02-27T15:48:53.580Z,53.30
2018-02-27T15:51:21.989Z,53.70
2018-02-27T15:53:49.582Z,53.60
2018-02-27T15:56:17.166Z,54.10
2018-02-27T15:58:44.767Z,54.20
2018-02-27T16:01:12.380Z,54.20
2018-02-27T16:03:39.978Z,53.80
2018-02-27T16:06:08.330Z,54.90
2018-02-27T16:08:35.919Z,54.90
2018-02-27T16:11:04.271Z,54.60
2018-02-27T16:13:31.859Z,54.70
2018-02-27T16:15:59.462Z,54.40
2018-02-27T16:18:27.048Z,54.50
2018-02-27T16:20:54.635Z,55.30
2018-02-27T16:23:22.227Z,55.50
2018-02-27T16:25:50.596Z,55.60
2018-02-27T16:28:18.182Z,55.50
2018-02-27T16:30:46.526Z,56.20
2018-02-27T16:33:14.127Z,56.20
2018-02-27T16:35:42.482Z,57.00
2018-02-27T16:38:10.063Z,56.90
2018-02-27T16:40:38.424Z,58.00
2018-02-27T16:43:06.018Z,57.70
2018-02-27T16:45:34.383Z,57.50
2018-02-27T16:48:02.000Z,57.50
2018-02-27T16:50:29.634Z,58.50
2018-02-27T16:52:57.982Z,57.80
2018-02-27T16:55:25.564Z,57.70
2018-02-27T16:57:53.146Z,57.90
2018-02-27T17:00:21.499Z,59.50
2018-02-27T17:02:49.131Z,59.40
2018-02-27T17:05:16.741Z,60.10
2018-02-27T17:07:44.323Z,60.00
2018-02-27T17:10:12.671Z,59.80
2018-02-27T17:12:40.249Z,59.80
2018-02-27T17:15:07.831Z,60.80
2018-02-27T17:17:36.184Z,62.00
2018-02-27T17:20:03.803Z,61.90
2018-02-27T17:22:31.386Z,62.70
2018-02-27T17:24:58.970Z,62.90
2018-02-27T17:27:26.623Z,62.40
2018-02-27T17:29:54.218Z,61.90
2018-02-27T17:32:21.806Z,63.00
2018-02-27T17:34:50.158Z,63.70
2018-02-27T17:37:17.744Z,63.70
2018-02-27T17:39:45.330Z,63.60
2018-02-27T17:42:12.922Z,63.80
2018-02-27T17:44:40.523Z,64.30
2018-02-27T17:47:08.110Z,64.30
2018-02-27T17:49:36.557Z,64.20
2018-02-27T17:52:04.171Z,64.00
2018-02-27T17:54:31.759Z,63.80
2018-02-27T17:56:59.340Z,64.10
2018-02-27T17:59:26.936Z,64.60
2018-02-27T18:01:54.531Z,63.90
2018-02-27T18:04:22.918Z,64.20
2018-02-27T18:06:51.261Z,65.90
2018-02-27T18:09:18.900Z,65.90
2018-02-27T18:11:46.487Z,66.80
2018-02-27T18:14:14.066Z,67.30
2018-02-27T18:16:41.658Z,67.70
2018-02-27T18:19:09.271Z,66.30
2018-02-27T18:21:36.862Z,66.50
2018-02-27T18:24:04.451Z,65.00
2018-02-27T18:26:32.038Z,64.70
2018-02-27T18:28:59.800Z,65.50
2018-02-27T18:31:27.416Z,65.60
2018-02-27T18:33:55.012Z,66.10
2018-02-27T18:36:23.362Z,66.10
2018-02-27T18:38:50.951Z,66.10
2018-02-27T18:41:19.331Z,66.70
2018-02-27T18:43:47.781Z,67.10
2018-02-27T18:46:16.067Z,68.50
2018-02-27T18:48:43.675Z,68.50
2018-02-27T18:51:11.266Z,68.40
2018-02-27T18:53:38.859Z,68.60
2018-02-27T18:56:06.451Z,69.30
2018-02-27T18:58:34.042Z,70.30
2018-02-27T19:01:01.642Z,70.40
2018-02-27T19:03:29.244Z,71.10
2018-02-27T19:05:56.851Z,71.20
2018-02-27T19:08:24.469Z,71.40
2018-02-27T19:10:52.835Z,71.50
2018-02-27T19:13:20.431Z,71.40
2018-02-27T19:15:48.787Z,71.90
2018-02-27T19:18:16.379Z,71.80
2018-02-27T19:20:44.735Z,72.20
2018-02-27T19:23:12.331Z,72.00
2018-02-27T19:25:40.688Z,72.30
2018-02-27T19:28:08.279Z,72.20
2018-02-27T19:30:36.634Z,71.90
2018-02-27T19:33:04.227Z,71.90
2018-02-27T19:35:32.587Z,73.50
2018-02-27T19:38:00.191Z,73.40
2018-02-27T19:40:27.782Z,74.10
2018-02-27T19:42:56.228Z,74.50
2018-02-27T19:45:23.844Z,74.20
2018-02-27T19:47:51.458Z,74.20
2018-02-27T19:50:19.810Z,73.50
2018-02-27T19:52:47.407Z,73.50
2018-02-27T19:55:15.004Z,73.00
2018-02-27T19:57:42.600Z,72.90
2018-02-27T20:00:10.198Z,73.40
2018-02-27T20:02:38.554Z,74.40
2018-02-27T20:05:06.806Z,74.40
2018-02-27T20:07:34.398Z,74.40
2018-02-27T20:10:01.990Z,73.60
2018-02-27T20:12:30.343Z,72.90
2018-02-27T20:14:57.935Z,72.80
2018-02-27T20:17:26.295Z,72.50
2018-02-27T20:19:53.887Z,72.40
2018-02-27T20:22:21.494Z,72.80
2018-02-27T20:24:49.092Z,73.70
2018-02-27T20:27:16.683Z,74.10
2018-02-27T20:29:44.274Z,75.20
2018-02-27T20:32:11.863Z,76.00
2018-02-27T20:34:39.450Z,76.80
2018-02-27T20:37:07.043Z,78.00
2018-02-27T20:39:34.635Z,79.00
2018-02-27T20:42:02.243Z,79.80
2018-02-27T20:44:29.836Z,79.80
2018-02-27T20:46:57.431Z,80.40
2018-02-27T20:49:25.049Z,81.30
2018-02-27T20:51:53.414Z,81.80
2018-02-27T20:54:21.008Z,81.70
2018-02-27T20:56:49.367Z,82.10
2018-02-27T20:59:16.955Z,82.10
2018-02-27T21:01:44.546Z,82.70
2018-02-27T21:04:12.134Z,83.70
2018-02-27T21:06:39.722Z,83.90
2018-02-27T21:09:07.314Z,84.30
2018-02-27T21:11:35.667Z,85.20
2018-02-27T21:14:03.266Z,85.10
2018-02-27T21:16:30.858Z,85.00
2018-02-27T21:18:58.494Z,84.70
2018-02-27T21:21:26.850Z,83.70
2018-02-27T21:23:54.481Z,83.70
2018-02-27T21:26:22.066Z,83.50
2018-02-27T21:28:49.659Z,83.30
2018-02-27T21:31:18.031Z,83.30
2018-02-27T21:33:45.627Z,83.20
2018-02-27T21:36:13.219Z,84.10
2018-02-27T21:38:40.813Z,83.70
2018-02-27T21:41:08.402Z,84.00
2018-02-27T21:43:36.756Z,84.70
2018-02-27T21:46:04.351Z,84.50
2018-02-27T21:48:31.946Z,85.10
2018-02-27T21:50:59.538Z,85.50
2018-02-27T21:53:27.130Z,85.30
2018-02-27T21:55:54.726Z,85.40
2018-02-27T21:58:22.342Z,86.20
2018-02-27T22:00:49.981Z,85.50
2018-02-27T22:03:17.579Z,85.70
2018-02-27T22:05:45.171Z,86.20
2018-02-27T22:08:13.538Z,86.30
2018-02-27T22:10:41.135Z,86.30
2018-02-27T22:13:08.731Z,86.70
2018-02-27T22:15:36.332Z,86.80
2018-02-27T22:18:04.702Z,87.00
2018-02-27T22:20:32.331Z,86.70
2018-02-27T22:22:59.922Z,86.90
2018-02-27T22:25:27.510Z,86.90
2018-02-27T22:27:55.135Z,87.00
2018-02-27T22:30:22.731Z,86.60
2018-02-27T22:32:50.322Z,86.70
2018-02-27T22:35:18.707Z,86.80
2018-02-27T22:37:47.111Z,86.90
2018-02-27T22:40:14.711Z,86.80
2018-02-27T22:42:42.362Z,86.50
2018-02-27T22:45:09.955Z,86.40
2018-02-27T22:47:37.607Z,85.90
2018-02-27T22:50:05.252Z,85.90
2018-02-27T22:52:32.838Z,85.40
2018-02-27T22:55:00.431Z,85.20
2018-02-27T22:57:28.022Z,84.80
2018-02-27T22:59:55.615Z,84.70
2018-02-27T23:02:23.211Z,84.10
2018-02-27T23:04:50.826Z,84.10
2018-02-27T23:07:18.415Z,84.20
2018-02-27T23:09:46.051Z,84.00
2018-02-27T23:12:13.658Z,84.10
2018-02-27T23:14:41.255Z,83.80
2018-02-27T23:17:08.841Z,84.50
2018-02-27T23:19:36.439Z,83.90
2018-02-27T23:22:04.040Z,83.90
2018-02-27T23:24:40.259Z,84.10
2018-02-27T23:27:08.842Z,83.30
2018-02-27T23:29:36.641Z,83.60
2018-02-27T23:32:06.826Z,83.40
2018-02-27T23:34:43.915Z,83.40
2018-02-27T23:37:11.511Z,83.50
2018-02-27T23:39:39.102Z,83.00
2018-02-27T23:42:07.459Z,82.50
2018-02-27T23:44:35.051Z,83.00
2018-02-27T23:47:03.406Z,83.60
2018-02-27T23:49:31.003Z,83.60
2018-02-27T23:51:59.356Z,84.00
2018-02-27T23:54:26.947Z,83.90
2018-02-27T23:56:55.346Z,84.10
2018-02-27T23:59:22.942Z,84.00
